Time;durP1;ratioP1;P1;durP2;ratioP2;P2;SDS_P1;SDS_P2;PMS_P1;PMS_P2;Temp;Humidity;BMP_temperature;BMP_pressure;BME280_temperature;BME280_humidity;BME280_pressure;Samples;Min_cycle;Max_cycle;Signal;HPM_P1;HPM_P2
2021/12/24 00:01:25;;;;;;;38.37;23.10;;;9.10;99.90;;;;;;5113816;28;20947;-65
2021/12/24 00:04:09;;;;;;;33.33;21.63;;;9.20;99.90;;;;;;5113910;28;20493;-65
2021/12/24 00:06:43;;;;;;;29.73;21.80;;;9.10;99.90;;;;;;5112546;28;20815;-65
2021/12/24 00:09:10;;;;;;;32.10;21.27;;;9.10;99.90;;;;;;5114013;28;20438;-65
2021/12/24 00:11:37;;;;;;;32.00;21.30;;;9.10;99.90;;;;;;5113916;28;20482;-65
2021/12/24 00:14:06;;;;;;;31.63;21.80;;;9.10;99.90;;;;;;5113888;28;20463;-65
2021/12/24 00:16:39;;;;;;;40.23;24.47;;;9.10;99.90;;;;;;5113881;28;20450;-65
2021/12/24 00:19:17;;;;;;;35.53;23.00;;;9.10;99.90;;;;;;5113905;28;20439;-65
2021/12/24 00:35:32;;;;;;;34.10;24.00;;;9.10;99.90;;;;;;5095793;28;20422;-65
2021/12/24 00:38:03;;;;;;;32.83;24.90;;;9.00;99.90;;;;;;5113756;28;20462;-65
2021/12/24 00:40:31;;;;;;;39.43;26.63;;;9.00;99.90;;;;;;5113698;28;20431;-65
2021/12/24 00:42:59;;;;;;;42.53;25.77;;;9.00;99.90;;;;;;5113514;28;20478;-65
2021/12/24 00:45:27;;;;;;;37.10;25.37;;;9.00;99.90;;;;;;5116222;28;20457;-65
2021/12/24 00:47:55;;;;;;;40.67;27.17;;;9.00;99.90;;;;;;5117450;28;20423;-65
2021/12/24 00:50:25;;;;;;;37.90;25.80;;;9.00;99.90;;;;;;5117695;28;20524;-65
2021/12/24 00:52:57;;;;;;;31.47;23.23;;;9.10;99.90;;;;;;5117290;28;21021;-65
2021/12/24 00:55:27;;;;;;;33.50;24.73;;;9.10;99.90;;;;;;5117598;28;20442;-65
2021/12/24 00:57:56;;;;;;;33.43;22.83;;;9.10;99.90;;;;;;5117206;28;20456;-65
2021/12/24 01:00:25;;;;;;;40.70;27.30;;;9.00;99.90;;;;;;5117082;28;20827;-65
2021/12/24 01:02:54;;;;;;;39.00;24.90;;;9.00;99.90;;;;;;5116909;28;20475;-65
2021/12/24 01:05:23;;;;;;;37.97;25.00;;;9.00;99.90;;;;;;5117305;28;20427;-65
2021/12/24 01:07:50;;;;;;;37.33;25.63;;;9.00;99.90;;;;;;5117210;28;20995;-65
2021/12/24 01:10:20;;;;;;;39.20;26.60;;;9.00;99.90;;;;;;5117286;28;20454;-65
2021/12/24 01:12:48;;;;;;;34.30;25.03;;;9.10;99.90;;;;;;5117282;28;20543;-65
2021/12/24 01:15:15;;;;;;;33.77;23.83;;;9.00;99.90;;;;;;5117335;28;20423;-65
2021/12/24 01:17:47;;;;;;;40.27;25.07;;;9.00;99.90;;;;;;5117187;28;20856;-65
2021/12/24 01:20:23;;;;;;;33.50;23.87;;;9.10;99.90;;;;;;5117169;28;20488;-65
2021/12/24 01:25:41;;;;;;;35.50;24.43;;;9.10;99.90;;;;;;5117414;27;20413;-65
2021/12/24 01:39:22;;;;;;;35.33;24.67;;;9.10;99.90;;;;;;5116581;28;20398;-67
2021/12/24 01:44:37;;;;;;;35.30;22.40;;;9.20;99.90;;;;;;5116345;28;20512;-67
2021/12/24 01:47:07;;;;;;;34.90;23.23;;;9.20;99.90;;;;;;5116618;28;20959;-67
2021/12/24 01:49:34;;;;;;;37.43;23.23;;;9.20;99.90;;;;;;5116555;28;20488;-67
2021/12/24 01:52:02;;;;;;;35.10;23.47;;;9.20;99.90;;;;;;5116497;28;20481;-67
2021/12/24 01:54:30;;;;;;;32.77;22.63;;;9.30;99.90;;;;;;5116423;27;20547;-67
2021/12/24 01:56:56;;;;;;;32.57;23.23;;;9.30;99.90;;;;;;5115636;28;20478;-67
2021/12/24 01:59:23;;;;;;;34.37;24.63;;;9.30;99.90;;;;;;5116126;28;20463;-67
2021/12/24 02:01:52;;;;;;;34.47;24.83;;;9.30;99.90;;;;;;5116326;28;20450;-67
2021/12/24 02:04:19;;;;;;;35.20;23.77;;;9.30;99.90;;;;;;5116137;27;20490;-67
2021/12/24 02:06:47;;;;;;;35.87;22.90;;;9.30;99.90;;;;;;5115917;28;20944;-67
2021/12/24 02:09:14;;;;;;;34.13;23.23;;;9.30;99.90;;;;;;5115885;28;20442;-67
2021/12/24 02:11:42;;;;;;;32.97;24.00;;;9.30;99.90;;;;;;5116173;28;20594;-67
2021/12/24 02:14:10;;;;;;;33.87;23.17;;;9.40;99.90;;;;;;5116021;28;20463;-67
2021/12/24 02:16:51;;;;;;;36.37;24.80;;;9.40;99.90;;;;;;5116095;28;20435;-67
2021/12/24 02:30:30;;;;;;;31.80;21.33;;;9.50;99.90;;;;;;5116092;28;20399;-67
2021/12/24 02:32:57;;;;;;;31.20;22.70;;;9.50;99.90;;;;;;5116279;28;20458;-67
2021/12/24 02:35:24;;;;;;;30.63;20.47;;;9.50;99.90;;;;;;5116034;27;20534;-67
2021/12/24 02:37:53;;;;;;;32.13;22.13;;;9.50;99.90;;;;;;5115640;28;20443;-68
2021/12/24 02:40:20;;;;;;;33.20;21.50;;;9.50;99.90;;;;;;5115594;28;20538;-68
2021/12/24 02:42:51;;;;;;;27.87;20.30;;;9.50;99.90;;;;;;5115142;28;20929;-67
2021/12/24 02:45:18;;;;;;;27.97;21.30;;;9.60;99.90;;;;;;5115129;28;20463;-67
2021/12/24 02:48:07;;;;;;;23.53;18.93;;;9.60;99.90;;;;;;5115438;28;20427;-67
2021/12/24 02:56:05;;;;;;;26.00;17.73;;;9.60;99.90;;;;;;5115299;28;20429;-67
2021/12/24 02:58:39;;;;;;;26.23;19.03;;;9.60;99.90;;;;;;5114722;27;21025;-67
2021/12/24 03:01:06;;;;;;;28.63;21.10;;;9.60;99.90;;;;;;5115177;28;20472;-67
2021/12/24 03:03:33;;;;;;;32.53;19.67;;;9.60;99.90;;;;;;5114935;28;20482;-67
2021/12/24 03:06:00;;;;;;;25.37;20.07;;;9.60;99.90;;;;;;5115091;28;20438;-68
2021/12/24 03:08:28;;;;;;;24.73;17.60;;;9.60;99.90;;;;;;5113917;28;20446;-68
2021/12/24 03:10:57;;;;;;;46.13;18.43;;;9.60;99.90;;;;;;5114978;28;20451;-68
2021/12/24 03:13:25;;;;;;;23.07;17.90;;;9.60;99.90;;;;;;5114898;28;20516;-68
2021/12/24 03:15:53;;;;;;;24.00;19.37;;;9.60;99.90;;;;;;5115712;28;20450;-68
2021/12/24 03:18:25;;;;;;;24.93;18.10;;;9.60;99.90;;;;;;5114865;28;20443;-68
2021/12/24 03:20:58;;;;;;;21.53;16.80;;;9.60;99.90;;;;;;5114874;28;20435;-68
2021/12/24 03:23:35;;;;;;;24.13;16.83;;;9.50;99.90;;;;;;5114720;28;20466;-68
2021/12/24 03:26:05;;;;;;;23.90;19.20;;;9.50;99.90;;;;;;5114787;28;20437;-68
2021/12/24 03:28:32;;;;;;;25.50;19.00;;;9.50;99.90;;;;;;5114688;28;20504;-68
2021/12/24 03:30:59;;;;;;;23.70;17.77;;;9.50;99.90;;;;;;5114334;28;20447;-68
2021/12/24 03:33:26;;;;;;;23.33;18.30;;;9.50;99.90;;;;;;5114198;28;20477;-68
2021/12/24 03:35:53;;;;;;;21.80;17.10;;;9.50;99.90;;;;;;5114554;28;20804;-68
2021/12/24 03:38:19;;;;;;;22.60;17.80;;;9.50;99.90;;;;;;5114493;28;20443;-68
2021/12/24 03:40:46;;;;;;;28.67;17.57;;;9.50;99.90;;;;;;5114483;28;20443;-68
2021/12/24 03:43:14;;;;;;;27.50;18.90;;;9.50;99.90;;;;;;5114354;28;20463;-68
2021/12/24 03:45:48;;;;;;;27.40;19.70;;;9.50;99.90;;;;;;5114102;28;20952;-68
2021/12/24 03:48:19;;;;;;;26.00;18.40;;;9.50;99.90;;;;;;5114360;28;20439;-68
2021/12/24 03:50:54;;;;;;;23.00;18.70;;;9.50;99.90;;;;;;5114352;27;20427;-68
2021/12/24 03:56:11;;;;;;;24.83;18.80;;;9.50;99.90;;;;;;5074975;28;21017;-67
2021/12/24 03:58:39;;;;;;;23.13;19.60;;;9.50;99.90;;;;;;5114093;28;20447;-67
2021/12/24 04:01:06;;;;;;;22.73;17.80;;;9.50;99.90;;;;;;5114159;28;20448;-67
2021/12/24 04:03:33;;;;;;;30.27;19.87;;;9.50;99.90;;;;;;5113630;27;20800;-67
2021/12/24 04:06:00;;;;;;;27.30;19.30;;;9.60;99.90;;;;;;5114121;28;20426;-67
2021/12/24 04:08:27;;;;;;;26.90;18.30;;;9.60;99.90;;;;;;5114054;28;20447;-67
2021/12/24 04:10:53;;;;;;;29.60;19.67;;;9.50;99.90;;;;;;5114055;28;20447;-67
2021/12/24 04:13:20;;;;;;;32.17;20.93;;;9.50;99.90;;;;;;5113659;28;20829;-67
2021/12/24 04:15:48;;;;;;;25.17;19.33;;;9.60;99.90;;;;;;5113976;28;20450;-67
2021/12/24 04:18:20;;;;;;;28.37;19.60;;;9.60;99.90;;;;;;5113996;28;20883;-67
2021/12/24 04:26:15;;;;;;;24.07;18.30;;;9.60;99.90;;;;;;5113942;28;20403;-67
2021/12/24 04:28:42;;;;;;;26.23;17.60;;;9.60;99.90;;;;;;5113895;28;20438;-67
2021/12/24 04:31:10;;;;;;;26.13;18.50;;;9.60;99.90;;;;;;5113830;28;20447;-67
2021/12/24 04:33:40;;;;;;;28.13;17.43;;;9.70;99.90;;;;;;5113772;28;20462;-67
2021/12/24 04:36:22;;;;;;;27.80;18.33;;;9.70;99.90;;;;;;5113440;28;20928;-67
2021/12/24 04:39:14;;;;;;;26.13;16.80;;;9.70;99.90;;;;;;5113818;28;20437;-67
2021/12/24 04:53:11;;;;;;;23.47;16.70;;;9.70;99.90;;;;;;5113639;28;20435;-68
2021/12/24 05:01:27;;;;;;;27.00;18.10;;;9.70;99.90;;;;;;5113182;28;20479;-68
2021/12/24 05:03:57;;;;;;;25.07;18.13;;;9.70;99.90;;;;;;5113436;28;20532;-68
2021/12/24 05:06:33;;;;;;;26.30;18.50;;;9.70;99.90;;;;;;5113784;28;20447;-68
2021/12/24 05:09:06;;;;;;;25.73;19.13;;;9.70;99.90;;;;;;5113568;28;20518;-68
2021/12/24 05:11:33;;;;;;;24.30;18.33;;;9.70;99.90;;;;;;5113545;28;20528;-68
2021/12/24 05:14:00;;;;;;;27.60;19.57;;;9.70;99.90;;;;;;5113396;28;20485;-67
2021/12/24 05:16:39;;;;;;;29.13;17.97;;;9.70;99.90;;;;;;5113109;28;20927;-67
2021/12/24 05:21:47;;;;;;;30.03;17.87;;;9.80;99.90;;;;;;5112824;28;20421;-67
2021/12/24 05:24:17;;;;;;;25.83;17.10;;;9.80;99.90;;;;;;5113250;28;20474;-67
2021/12/24 05:26:46;;;;;;;27.40;18.10;;;9.80;99.90;;;;;;5113008;28;20967;-68
2021/12/24 05:29:14;;;;;;;28.60;19.33;;;9.80;99.90;;;;;;5113352;28;20431;-68
2021/12/24 05:31:41;;;;;;;28.63;18.93;;;9.80;99.90;;;;;;5114556;28;20447;-68
2021/12/24 05:34:09;;;;;;;27.53;20.00;;;9.80;99.90;;;;;;5116998;27;20462;-68
2021/12/24 05:36:36;;;;;;;26.83;19.20;;;9.80;99.90;;;;;;5116888;28;20470;-68
2021/12/24 05:39:03;;;;;;;25.10;16.97;;;9.80;99.90;;;;;;5116854;28;20443;-68
2021/12/24 05:41:30;;;;;;;32.43;19.53;;;9.80;99.90;;;;;;5116797;28;20438;-68
2021/12/24 05:43:58;;;;;;;26.30;19.47;;;9.90;99.90;;;;;;5116232;27;20466;-68
2021/12/24 05:46:25;;;;;;;26.73;18.30;;;9.90;99.90;;;;;;5116670;28;20828;-68
2021/12/24 05:48:52;;;;;;;25.10;18.47;;;9.80;99.90;;;;;;5116621;28;20439;-68
2021/12/24 05:51:20;;;;;;;30.03;18.63;;;9.80;99.90;;;;;;5116222;28;20443;-68
2021/12/24 05:53:47;;;;;;;30.03;18.77;;;9.80;99.90;;;;;;5116460;28;20465;-67
2021/12/24 05:56:14;;;;;;;30.17;19.70;;;9.80;99.90;;;;;;5116131;28;20921;-67
2021/12/24 05:58:41;;;;;;;30.30;18.67;;;9.90;99.90;;;;;;5116133;28;20467;-67
2021/12/24 06:01:08;;;;;;;27.43;19.03;;;9.80;99.90;;;;;;5116039;28;20439;-67
2021/12/24 06:03:34;;;;;;;27.97;18.97;;;9.80;99.90;;;;;;5116250;28;20467;-67
2021/12/24 06:06:01;;;;;;;31.83;19.37;;;9.80;99.90;;;;;;5116261;28;20479;-67
2021/12/24 06:08:29;;;;;;;37.07;20.20;;;9.80;99.90;;;;;;5115944;28;20940;-67
2021/12/24 06:10:56;;;;;;;24.40;17.70;;;9.80;99.90;;;;;;5116255;28;20447;-68
2021/12/24 06:13:25;;;;;;;28.37;19.03;;;9.80;99.90;;;;;;5116061;28;20495;-67
2021/12/24 06:15:52;;;;;;;28.03;17.67;;;9.80;99.90;;;;;;5116063;28;20439;-67
2021/12/24 06:18:23;;;;;;;34.93;19.57;;;9.80;99.90;;;;;;5116032;28;20458;-67
2021/12/24 06:20:50;;;;;;;30.53;19.93;;;9.90;99.90;;;;;;5116077;28;20431;-67
2021/12/24 06:23:19;;;;;;;22.73;17.90;;;9.90;99.90;;;;;;5115911;28;20474;-67
2021/12/24 06:25:47;;;;;;;26.77;19.67;;;9.80;99.90;;;;;;5115822;28;20478;-68
2021/12/24 06:28:14;;;;;;;28.63;19.97;;;9.80;99.90;;;;;;5115829;28;20944;-68
2021/12/24 06:30:41;;;;;;;21.83;17.70;;;9.80;99.90;;;;;;5115499;27;20431;-67
2021/12/24 06:33:09;;;;;;;20.90;16.80;;;9.80;99.90;;;;;;5115663;28;20883;-68
2021/12/24 06:35:36;;;;;;;24.10;17.70;;;9.80;99.90;;;;;;5115770;28;20423;-68
2021/12/24 06:38:04;;;;;;;26.93;18.53;;;9.80;99.90;;;;;;5115639;28;20450;-68
2021/12/24 06:40:31;;;;;;;23.33;17.50;;;9.80;99.90;;;;;;5115647;28;20447;-68
2021/12/24 06:42:59;;;;;;;23.23;16.50;;;9.80;99.90;;;;;;5114895;28;20968;-68
2021/12/24 06:45:26;;;;;;;27.23;17.43;;;9.80;99.90;;;;;;5115084;28;20475;-68
2021/12/24 06:47:55;;;;;;;30.13;19.60;;;9.80;99.90;;;;;;5115573;28;20546;-68
2021/12/24 06:50:23;;;;;;;33.33;19.60;;;9.80;99.90;;;;;;5115473;28;20464;-68
2021/12/24 06:52:50;;;;;;;32.10;18.37;;;9.80;99.90;;;;;;5115286;28;20474;-68
2021/12/24 06:55:18;;;;;;;27.10;18.23;;;9.80;99.90;;;;;;5115337;28;20435;-68
2021/12/24 06:57:45;;;;;;;30.47;17.37;;;9.90;99.90;;;;;;5114996;28;20790;-68
2021/12/24 07:00:18;;;;;;;30.90;17.50;;;9.80;99.90;;;;;;5114840;28;20974;-68
2021/12/24 07:02:46;;;;;;;32.90;17.67;;;9.80;99.90;;;;;;5114805;28;20922;-68
2021/12/24 07:05:13;;;;;;;30.10;18.17;;;9.80;99.90;;;;;;5115059;28;20470;-68
2021/12/24 07:07:40;;;;;;;28.77;18.33;;;9.80;99.90;;;;;;5115130;28;20454;-68
2021/12/24 07:10:07;;;;;;;25.83;17.40;;;9.80;99.90;;;;;;5114714;28;20936;-68
2021/12/24 07:12:34;;;;;;;31.23;18.50;;;9.80;99.90;;;;;;5114927;28;20465;-67
2021/12/24 07:15:01;;;;;;;30.63;19.00;;;9.80;99.90;;;;;;5114970;28;20439;-68
2021/12/24 07:17:29;;;;;;;30.47;19.43;;;9.80;99.90;;;;;;5114903;28;20473;-68
2021/12/24 07:19:56;;;;;;;39.10;21.13;;;9.70;99.90;;;;;;5114886;28;20439;-68
2021/12/24 07:22:22;;;;;;;30.43;19.93;;;9.70;99.90;;;;;;5114482;28;20960;-69
2021/12/24 07:24:49;;;;;;;29.73;19.97;;;9.70;99.90;;;;;;5114580;27;20479;-67
2021/12/24 07:27:16;;;;;;;32.57;23.10;;;9.70;99.90;;;;;;5113550;28;20435;-68
2021/12/24 07:29:43;;;;;;;33.00;21.47;;;9.80;99.90;;;;;;5114682;27;20451;-69
2021/12/24 07:32:09;;;;;;;28.10;20.67;;;9.90;99.90;;;;;;5114646;28;20443;-69
2021/12/24 07:34:38;;;;;;;35.30;20.47;;;9.90;99.90;;;;;;5114614;28;20459;-67
2021/12/24 07:37:05;;;;;;;33.77;20.93;;;10.00;99.90;;;;;;5114532;28;20443;-67
2021/12/24 07:39:31;;;;;;;31.13;20.63;;;10.00;99.90;;;;;;5114603;28;20443;-67
2021/12/24 07:41:58;;;;;;;31.90;20.10;;;10.10;99.90;;;;;;5114556;28;20866;-67
2021/12/24 07:44:26;;;;;;;32.90;18.90;;;10.10;99.90;;;;;;5114363;27;20499;-67
2021/12/24 07:46:56;;;;;;;32.20;19.37;;;10.10;99.90;;;;;;5114411;28;20443;-67
2021/12/24 07:49:32;;;;;;;32.80;19.97;;;10.00;99.90;;;;;;5114354;28;20438;-67
2021/12/24 07:52:08;;;;;;;36.00;20.97;;;10.00;99.90;;;;;;5114381;28;20419;-68
2021/12/24 07:54:38;;;;;;;38.33;20.77;;;10.00;99.90;;;;;;5113578;28;20888;-67
2021/12/24 07:57:06;;;;;;;34.00;20.60;;;10.00;99.90;;;;;;5114314;28;20551;-67
2021/12/24 07:59:36;;;;;;;44.30;21.93;;;9.90;99.90;;;;;;5113960;28;20514;-68
2021/12/24 08:02:03;;;;;;;39.90;21.77;;;9.90;99.90;;;;;;5114960;28;20447;-67
2021/12/24 08:04:30;;;;;;;53.00;22.83;;;9.80;99.90;;;;;;5113960;28;20471;-67
2021/12/24 08:06:57;;;;;;;42.92;21.80;;;9.80;99.90;;;;;;5113862;28;20505;-67
2021/12/24 08:09:25;;;;;;;59.53;22.17;;;9.80;99.90;;;;;;5114113;28;20208;-68
2021/12/24 08:11:51;;;;;;;39.20;20.53;;;9.80;99.90;;;;;;5114334;28;20457;-68
2021/12/24 08:14:18;;;;;;;36.67;20.50;;;9.80;99.90;;;;;;5114425;28;20461;-67
2021/12/24 08:16:45;;;;;;;28.30;19.93;;;9.80;99.90;;;;;;5114181;28;20446;-68
2021/12/24 08:19:13;;;;;;;31.20;18.37;;;9.80;99.90;;;;;;5114242;28;20446;-68
2021/12/24 08:21:40;;;;;;;36.60;18.53;;;9.80;99.90;;;;;;5114021;28;20848;-74
2021/12/24 08:24:08;;;;;;;40.83;19.47;;;9.80;99.90;;;;;;5113856;28;20838;-68
2021/12/24 08:26:36;;;;;;;30.87;19.73;;;9.80;99.90;;;;;;5113437;28;20931;-68
2021/12/24 08:29:03;;;;;;;29.20;18.10;;;9.80;99.90;;;;;;5113866;28;20451;-68
2021/12/24 08:31:31;;;;;;;40.30;20.93;;;9.80;99.90;;;;;;5113040;28;20427;-68
2021/12/24 08:33:58;;;;;;;35.93;19.20;;;9.90;99.90;;;;;;5114328;28;20462;-68
2021/12/24 08:36:25;;;;;;;31.33;17.70;;;10.00;99.90;;;;;;5113854;28;20442;-68
2021/12/24 08:38:51;;;;;;;30.93;17.70;;;9.90;99.90;;;;;;5113837;28;20959;-68
2021/12/24 08:41:18;;;;;;;28.53;16.77;;;9.90;99.90;;;;;;5113943;28;20496;-68
2021/12/24 08:43:46;;;;;;;29.80;16.77;;;10.00;99.90;;;;;;5113503;28;20471;-68
2021/12/24 08:46:13;;;;;;;33.07;16.13;;;9.90;99.90;;;;;;5113348;28;20481;-68
2021/12/24 08:48:40;;;;;;;34.50;17.40;;;10.00;99.90;;;;;;5113761;28;20442;-68
2021/12/24 08:51:07;;;;;;;30.40;16.60;;;9.90;99.90;;;;;;5113674;28;20447;-68
2021/12/24 08:53:34;;;;;;;34.53;15.73;;;9.90;99.90;;;;;;5113588;28;20499;-67
2021/12/24 08:56:02;;;;;;;29.10;16.37;;;9.90;99.90;;;;;;5113316;28;20439;-69
2021/12/24 08:58:28;;;;;;;26.80;15.53;;;10.00;99.90;;;;;;5113397;28;20463;-68
2021/12/24 09:00:56;;;;;;;31.40;15.27;;;10.10;99.90;;;;;;5113758;28;20423;-68
2021/12/24 09:03:23;;;;;;;24.70;14.83;;;10.10;99.90;;;;;;5113551;28;20474;-68
2021/12/24 09:05:50;;;;;;;26.23;15.30;;;10.10;99.90;;;;;;5115022;28;20481;-68
2021/12/24 09:08:17;;;;;;;25.83;14.40;;;10.10;99.90;;;;;;5117441;28;20446;-68
2021/12/24 09:10:44;;;;;;;23.00;13.60;;;10.10;99.90;;;;;;5117439;28;20431;-68
2021/12/24 09:13:11;;;;;;;27.93;13.73;;;10.10;99.90;;;;;;5117193;28;20462;-68
2021/12/24 09:15:40;;;;;;;24.90;14.50;;;10.10;99.90;;;;;;5117302;28;20443;-68
2021/12/24 09:18:08;;;;;;;24.53;13.63;;;10.00;99.90;;;;;;5117200;28;20450;-68
2021/12/24 09:20:40;;;;;;;21.37;13.93;;;10.00;99.90;;;;;;5116930;28;20950;-68
2021/12/24 09:23:07;;;;;;;28.33;14.13;;;10.00;99.90;;;;;;5116921;28;20527;-68
2021/12/24 09:25:34;;;;;;;26.37;12.67;;;10.00;99.90;;;;;;5116986;28;20482;-68
2021/12/24 09:28:02;;;;;;;25.53;14.70;;;10.00;99.90;;;;;;5117085;28;20448;-68
2021/12/24 09:30:30;;;;;;;25.77;13.87;;;9.90;99.90;;;;;;5117092;28;20430;-68
2021/12/24 09:32:57;;;;;;;24.57;14.13;;;10.00;99.90;;;;;;5116623;28;20841;-68
2021/12/24 09:35:26;;;;;;;25.10;14.50;;;10.00;99.90;;;;;;5116890;28;20435;-69
2021/12/24 09:37:53;;;;;;;30.30;15.40;;;10.00;99.90;;;;;;5117039;28;20785;-69
2021/12/24 09:40:20;;;;;;;25.70;14.10;;;9.90;99.90;;;;;;5116806;28;20471;-69
2021/12/24 09:42:47;;;;;;;24.70;14.90;;;9.90;99.90;;;;;;5116702;28;20439;-68
2021/12/24 09:45:16;;;;;;;26.43;14.70;;;9.90;99.90;;;;;;5116614;28;20439;-69
2021/12/24 09:47:44;;;;;;;21.77;14.40;;;9.90;99.90;;;;;;5116541;28;20454;-69
2021/12/24 09:50:12;;;;;;;25.67;14.60;;;9.90;99.90;;;;;;5116298;27;20454;-69
2021/12/24 09:52:44;;;;;;;25.13;15.50;;;9.90;99.90;;;;;;5116557;28;20450;-69
2021/12/24 09:55:13;;;;;;;31.93;15.67;;;9.90;99.90;;;;;;5116628;28;20427;-69
2021/12/24 09:57:41;;;;;;;26.17;13.70;;;10.00;99.90;;;;;;5116472;28;20447;-69
2021/12/24 10:00:10;;;;;;;23.80;14.33;;;10.10;99.90;;;;;;5116142;28;20462;-69
2021/12/24 10:02:41;;;;;;;22.00;14.03;;;10.10;99.90;;;;;;5116291;27;20447;-69
2021/12/24 10:05:24;;;;;;;19.60;12.20;;;10.20;99.90;;;;;;5116327;28;20431;-69
2021/12/24 10:07:53;;;;;;;23.40;13.63;;;10.20;99.90;;;;;;5116310;28;20517;-69
2021/12/24 10:10:25;;;;;;;25.70;14.20;;;10.10;99.90;;;;;;5116250;28;20844;-69
2021/12/24 10:12:52;;;;;;;35.03;14.50;;;10.10;99.90;;;;;;5115905;28;21041;-69
2021/12/24 10:15:20;;;;;;;26.40;13.33;;;10.10;99.90;;;;;;5116192;28;20443;-69
2021/12/24 10:17:47;;;;;;;26.37;13.47;;;10.20;99.90;;;;;;5115535;28;20450;-69
2021/12/24 10:20:16;;;;;;;20.77;14.20;;;10.20;99.90;;;;;;5115817;28;20443;-69
2021/12/24 10:22:45;;;;;;;26.03;14.03;;;10.20;99.90;;;;;;5116050;28;20442;-68
2021/12/24 10:25:14;;;;;;;24.80;14.67;;;10.20;99.90;;;;;;5115987;27;20438;-69
2021/12/24 10:27:43;;;;;;;21.67;13.00;;;10.20;99.90;;;;;;5115917;28;20438;-69
2021/12/24 10:30:19;;;;;;;23.50;13.00;;;10.20;99.90;;;;;;5115546;28;20446;-69
2021/12/24 10:32:46;;;;;;;22.10;12.17;;;10.10;99.90;;;;;;5115729;28;20446;-69
2021/12/24 10:35:20;;;;;;;20.80;13.57;;;10.10;99.90;;;;;;5115485;28;20454;-69
2021/12/24 10:37:47;;;;;;;22.93;13.83;;;10.10;99.90;;;;;;5115440;28;20946;-69
2021/12/24 10:40:15;;;;;;;28.37;12.10;;;10.20;99.90;;;;;;5115377;28;20446;-70
2021/12/24 10:42:43;;;;;;;23.10;13.27;;;10.20;99.90;;;;;;5115577;28;20458;-69
2021/12/24 10:45:17;;;;;;;22.40;12.57;;;10.30;99.90;;;;;;5115221;28;20817;-69
2021/12/24 10:47:44;;;;;;;26.20;12.70;;;10.30;99.90;;;;;;5115188;28;20469;-69
2021/12/24 10:50:27;;;;;;;20.70;10.90;;;10.40;99.90;;;;;;5115378;28;20443;-69
2021/12/24 10:55:35;;;;;;;21.83;13.87;;;10.40;99.90;;;;;;5115519;28;20392;-69
2021/12/24 10:58:17;;;;;;;22.37;13.80;;;10.40;99.90;;;;;;5115480;28;20542;-70
2021/12/24 11:00:48;;;;;;;17.50;11.00;;;10.40;99.90;;;;;;5115385;28;20430;-70
2021/12/24 11:03:22;;;;;;;17.90;11.33;;;10.40;99.90;;;;;;5115027;27;20467;-70
2021/12/24 11:05:51;;;;;;;27.93;13.83;;;10.40;99.90;;;;;;5114750;28;20552;-71
2021/12/24 11:08:19;;;;;;;18.13;11.73;;;10.40;99.90;;;;;;5114867;28;20497;-71
2021/12/24 11:10:49;;;;;;;23.73;13.00;;;10.40;99.90;;;;;;5115083;28;20455;-71
2021/12/24 11:13:18;;;;;;;24.40;13.87;;;10.40;99.90;;;;;;5114950;27;20455;-70
2021/12/24 11:15:47;;;;;;;21.33;13.60;;;10.40;99.90;;;;;;5114803;28;20435;-71
2021/12/24 11:18:19;;;;;;;26.03;14.40;;;10.40;99.90;;;;;;5114581;28;20449;-72
2021/12/24 11:20:51;;;;;;;28.20;14.60;;;10.40;99.90;;;;;;5114945;28;20455;-71
2021/12/24 11:23:19;;;;;;;27.53;13.57;;;10.40;99.90;;;;;;5114737;28;20499;-71
2021/12/24 11:25:49;;;;;;;27.27;14.83;;;10.40;99.90;;;;;;5114340;28;20963;-72
2021/12/24 11:28:18;;;;;;;25.60;14.00;;;10.40;99.90;;;;;;5114536;27;20463;-70
2021/12/24 11:30:49;;;;;;;27.37;14.70;;;10.50;99.90;;;;;;5114071;28;20442;-70
2021/12/24 11:33:18;;;;;;;25.77;13.47;;;10.50;99.90;;;;;;5114658;28;20489;-70
2021/12/24 11:35:46;;;;;;;27.07;13.80;;;10.50;99.90;;;;;;5114607;28;20443;-70
2021/12/24 11:38:16;;;;;;;28.67;14.60;;;10.50;99.90;;;;;;5114686;28;20423;-71
2021/12/24 11:40:45;;;;;;;24.20;12.90;;;10.60;99.90;;;;;;5114542;28;20530;-71
2021/12/24 11:43:13;;;;;;;24.37;12.87;;;10.60;99.90;;;;;;5114679;28;20467;-70
2021/12/24 11:45:40;;;;;;;21.27;11.80;;;10.70;99.90;;;;;;5114841;27;20534;-71
2021/12/24 11:48:08;;;;;;;25.50;13.73;;;10.70;99.90;;;;;;5114728;28;20438;-71
2021/12/24 11:50:35;;;;;;;21.60;12.50;;;10.80;99.90;;;;;;5114645;28;20439;-71
2021/12/24 11:53:05;;;;;;;31.37;11.63;;;10.70;99.90;;;;;;5114323;28;20470;-71
2021/12/24 11:55:35;;;;;;;17.60;11.53;;;10.80;99.90;;;;;;5114359;28;20427;-71
2021/12/24 11:58:04;;;;;;;22.03;11.60;;;10.80;99.90;;;;;;5114167;28;20925;-71
2021/12/24 12:00:36;;;;;;;13.50;10.67;;;10.80;99.90;;;;;;5114270;28;20423;-71
2021/12/24 12:03:03;;;;;;;20.77;10.37;;;10.80;99.90;;;;;;5114074;28;20466;-71
2021/12/24 12:05:33;;;;;;;18.53;11.97;;;10.80;99.90;;;;;;5113873;28;20442;-72
2021/12/24 12:08:30;;;;;;;23.43;11.63;;;10.80;99.90;;;;;;5114137;28;20463;-71
2021/12/24 12:10:59;;;;;;;21.40;12.13;;;10.80;99.90;;;;;;5113970;28;20431;-72
2021/12/24 12:13:40;;;;;;;23.90;11.43;;;10.70;99.90;;;;;;5113653;28;21022;-71
2021/12/24 12:16:11;;;;;;;21.97;11.23;;;10.70;99.90;;;;;;5113866;28;20451;-71
2021/12/24 12:18:50;;;;;;;19.53;9.80;;;10.80;99.90;;;;;;5113598;28;20931;-71
2021/12/24 12:21:26;;;;;;;21.00;11.10;;;10.70;99.90;;;;;;5114022;28;20458;-71
2021/12/24 12:24:57;;;;;;;23.03;10.80;;;10.70;99.90;;;;;;5114408;28;20801;-70
2021/12/24 12:26:54;;;;;;;14.30;9.60;;;10.80;99.90;;;;;;5113329;28;20471;-70
2021/12/24 12:29:28;;;;;;;18.60;9.97;;;10.80;99.90;;;;;;5113598;28;20447;-70
2021/12/24 12:32:03;;;;;;;15.87;9.57;;;11.00;99.90;;;;;;5113823;28;20428;-71
2021/12/24 12:34:50;;;;;;;14.90;9.60;;;11.00;99.90;;;;;;5113826;28;20473;-70
2021/12/24 12:37:18;;;;;;;20.07;10.40;;;11.00;99.90;;;;;;5114620;28;20478;-71
2021/12/24 12:39:47;;;;;;;20.77;10.30;;;11.10;99.90;;;;;;5113763;28;20443;-71
2021/12/24 12:42:16;;;;;;;18.83;10.03;;;11.10;99.90;;;;;;5117714;28;20454;-71
2021/12/24 12:44:47;;;;;;;19.80;9.60;;;11.10;99.90;;;;;;5117822;28;20469;-70
2021/12/24 12:47:16;;;;;;;13.67;9.50;;;11.10;99.90;;;;;;5117779;28;20520;-70
2021/12/24 12:49:44;;;;;;;21.87;10.23;;;11.10;99.90;;;;;;5117775;28;20446;-70
2021/12/24 12:52:20;;;;;;;18.40;9.33;;;11.00;99.90;;;;;;5117726;28;20446;-71
2021/12/24 12:54:48;;;;;;;15.07;10.20;;;11.00;99.90;;;;;;5117622;28;20469;-70
2021/12/24 12:57:31;;;;;;;18.70;9.77;;;11.00;99.90;;;;;;5117584;28;20465;-70
2021/12/24 13:00:19;;;;;;;19.90;10.60;;;10.90;99.90;;;;;;5117299;27;20447;-70
2021/12/24 13:03:09;;;;;;;29.20;10.10;;;10.80;99.90;;;;;;5117492;28;20433;-70
2021/12/24 13:05:58;;;;;;;20.73;10.17;;;10.70;99.90;;;;;;5117200;28;20915;-70
2021/12/24 13:08:27;;;;;;;19.10;11.47;;;10.70;99.90;;;;;;5117048;28;20964;-70
2021/12/24 13:10:56;;;;;;;18.97;10.27;;;10.70;99.90;;;;;;5117382;28;20427;-70
2021/12/24 13:13:22;;;;;;;19.60;10.90;;;10.60;99.90;;;;;;5116898;28;20872;-70
2021/12/24 13:15:49;;;;;;;33.63;11.80;;;10.60;99.90;;;;;;5116964;28;20435;-70
2021/12/24 13:18:25;;;;;;;22.53;11.97;;;10.60;99.90;;;;;;5116880;28;20439;-70
2021/12/24 13:23:35;;;;;;;25.00;12.80;;;10.60;99.90;;;;;;5116506;28;20816;-69
2021/12/24 13:26:09;;;;;;;21.33;11.77;;;10.50;99.90;;;;;;5117057;28;20439;-70
2021/12/24 13:28:52;;;;;;;22.00;10.73;;;10.50;99.90;;;;;;5117024;28;20441;-69
2021/12/24 13:31:19;;;;;;;16.67;10.93;;;10.50;99.90;;;;;;5116560;28;20443;-69
2021/12/24 13:33:48;;;;;;;19.20;11.70;;;10.40;99.90;;;;;;5116824;28;20463;-70
2021/12/24 13:36:15;;;;;;;24.33;10.77;;;10.50;99.90;;;;;;5116938;28;20419;-69
2021/12/24 13:38:42;;;;;;;21.97;11.70;;;10.40;99.90;;;;;;5116708;27;20446;-69
2021/12/24 13:41:09;;;;;;;25.47;12.27;;;10.50;99.90;;;;;;5116384;28;20526;-70
2021/12/24 13:43:37;;;;;;;17.60;10.43;;;10.50;99.90;;;;;;5116617;28;20474;-69
2021/12/24 13:46:07;;;;;;;17.20;10.50;;;10.50;99.90;;;;;;5116655;28;20457;-70
2021/12/24 13:48:47;;;;;;;14.83;11.23;;;10.50;99.90;;;;;;5116426;28;21031;-70
2021/12/24 13:56:49;;;;;;;19.83;12.03;;;10.50;99.90;;;;;;5116229;28;20937;-69
2021/12/24 13:59:25;;;;;;;20.60;11.17;;;10.60;99.90;;;;;;5116172;28;20457;-70
2021/12/24 14:01:53;;;;;;;15.93;10.57;;;10.60;99.90;;;;;;5116423;28;20438;-70
2021/12/24 14:04:21;;;;;;;15.73;11.37;;;10.50;99.90;;;;;;5116224;28;20469;-69
2021/12/24 14:06:51;;;;;;;20.63;12.53;;;10.50;99.90;;;;;;5116181;28;20847;-69
2021/12/24 14:09:20;;;;;;;19.27;12.70;;;10.50;99.90;;;;;;5116181;28;20440;-69
2021/12/24 14:11:49;;;;;;;29.17;11.23;;;10.50;99.90;;;;;;5116117;28;20447;-69